sensor_id;sensor_type;location;lat;lon;timestamp;temperature;humidity
47168;DHT22;32931;47.778;17.806;2023-12-20T00:01:56;1.80;99.90
47168;DHT22;32931;47.778;17.806;2023-12-20T00:04:22;1.90;99.90
47168;DHT22;32931;47.778;17.806;2023-12-20T00:06:48;1.80;99.90
47168;DHT22;32931;47.778;17.806;2023-12-20T00:09:14;1.80;99.90
47168;DHT22;32931;47.778;17.806;2023-12-20T00:11:40;1.80;99.90
47168;DHT22;32931;47.778;17.806;2023-12-20T00:14:08;1.80;99.90
47168;DHT22;32931;47.778;17.806;2023-12-20T00:16:34;1.80;99.90
47168;DHT22;32931;47.778;17.806;2023-12-20T00:19:00;1.80;99.90
47168;DHT22;32931;47.778;17.806;2023-12-20T00:21:27;1.80;99.90
47168;DHT22;32931;47.778;17.806;2023-12-20T00:23:53;1.80;99.90
47168;DHT22;32931;47.778;17.806;2023-12-20T00:26:19;1.80;99.90
47168;DHT22;32931;47.778;17.806;2023-12-20T00:28:45;1.80;99.90
47168;DHT22;32931;47.778;17.806;2023-12-20T00:31:11;1.80;99.90
47168;DHT22;32931;47.778;17.806;2023-12-20T00:33:37;1.80;99.90
47168;DHT22;32931;47.778;17.806;2023-12-20T00:36:05;1.80;99.90
47168;DHT22;32931;47.778;17.806;2023-12-20T00:38:32;1.80;99.90
47168;DHT22;32931;47.778;17.806;2023-12-20T00:40:58;1.80;99.90
47168;DHT22;32931;47.778;17.806;2023-12-20T00:43:24;1.80;99.90
47168;DHT22;32931;47.778;17.806;2023-12-20T00:45:50;1.80;99.90
47168;DHT22;32931;47.778;17.806;2023-12-20T00:48:16;1.90;99.90
47168;DHT22;32931;47.778;17.806;2023-12-20T00:50:42;1.80;99.90
47168;DHT22;32931;47.778;17.806;2023-12-20T00:53:08;1.80;99.90
47168;DHT22;32931;47.778;17.806;2023-12-20T00:55:34;1.80;99.90
47168;DHT22;32931;47.778;17.806;2023-12-20T00:58:00;1.80;99.90
47168;DHT22;32931;47.778;17.806;2023-12-20T01:00:27;1.90;99.90
47168;DHT22;32931;47.778;17.806;2023-12-20T01:02:53;1.80;99.90
47168;DHT22;32931;47.778;17.806;2023-12-20T01:05:19;1.80;99.90
47168;DHT22;32931;47.778;17.806;2023-12-20T01:07:45;1.80;99.90
47168;DHT22;32931;47.778;17.806;2023-12-20T01:10:11;1.80;99.90
47168;DHT22;32931;47.778;17.806;2023-12-20T01:12:37;1.80;99.90
47168;DHT22;32931;47.778;17.806;2023-12-20T01:15:04;1.80;99.90
47168;DHT22;32931;47.778;17.806;2023-12-20T01:17:30;1.80;99.90
47168;DHT22;32931;47.778;17.806;2023-12-20T01:19:56;1.80;99.90
47168;DHT22;32931;47.778;17.806;2023-12-20T01:22:22;1.80;99.90
47168;DHT22;32931;47.778;17.806;2023-12-20T01:24:48;1.80;99.90
47168;DHT22;32931;47.778;17.806;2023-12-20T01:27:14;1.80;99.90
47168;DHT22;32931;47.778;17.806;2023-12-20T01:29:40;1.70;99.90
47168;DHT22;32931;47.778;17.806;2023-12-20T01:32:07;1.70;99.90
47168;DHT22;32931;47.778;17.806;2023-12-20T01:34:33;1.80;99.90
47168;DHT22;32931;47.778;17.806;2023-12-20T01:36:59;1.70;99.90
47168;DHT22;32931;47.778;17.806;2023-12-20T01:39:26;1.70;99.90
47168;DHT22;32931;47.778;17.806;2023-12-20T01:41:52;1.70;99.90
47168;DHT22;32931;47.778;17.806;2023-12-20T01:44:18;1.80;99.90
47168;DHT22;32931;47.778;17.806;2023-12-20T01:46:45;1.70;99.90
47168;DHT22;32931;47.778;17.806;2023-12-20T01:49:12;1.70;99.90
47168;DHT22;32931;47.778;17.806;2023-12-20T01:51:39;1.70;99.90
47168;DHT22;32931;47.778;17.806;2023-12-20T01:54:05;1.70;99.90
47168;DHT22;32931;47.778;17.806;2023-12-20T01:56:32;1.70;99.90
47168;DHT22;32931;47.778;17.806;2023-12-20T01:58:58;1.70;99.90
47168;DHT22;32931;47.778;17.806;2023-12-20T02:01:26;1.70;99.90
47168;DHT22;32931;47.778;17.806;2023-12-20T02:03:54;1.70;99.90
47168;DHT22;32931;47.778;17.806;2023-12-20T02:06:21;1.70;99.90
47168;DHT22;32931;47.778;17.806;2023-12-20T02:08:50;1.70;99.90
47168;DHT22;32931;47.778;17.806;2023-12-20T02:11:16;1.70;99.90
47168;DHT22;32931;47.778;17.806;2023-12-20T02:13:42;1.70;99.90
47168;DHT22;32931;47.778;17.806;2023-12-20T02:16:08;1.70;99.90
47168;DHT22;32931;47.778;17.806;2023-12-20T02:18:34;1.70;99.90
47168;DHT22;32931;47.778;17.806;2023-12-20T02:21:01;1.70;99.90
47168;DHT22;32931;47.778;17.806;2023-12-20T02:23:27;1.70;99.90
47168;DHT22;32931;47.778;17.806;2023-12-20T02:25:53;1.70;99.90
47168;DHT22;32931;47.778;17.806;2023-12-20T02:28:19;1.70;99.90
47168;DHT22;32931;47.778;17.806;2023-12-20T02:30:47;1.70;99.90
47168;DHT22;32931;47.778;17.806;2023-12-20T02:33:14;1.70;99.90
47168;DHT22;32931;47.778;17.806;2023-12-20T02:35:41;1.60;99.90
47168;DHT22;32931;47.778;17.806;2023-12-20T02:38:07;1.60;99.90
47168;DHT22;32931;47.778;17.806;2023-12-20T02:40:33;1.60;99.90
47168;DHT22;32931;47.778;17.806;2023-12-20T02:42:59;1.60;99.90
47168;DHT22;32931;47.778;17.806;2023-12-20T02:45:26;1.60;99.90
47168;DHT22;32931;47.778;17.806;2023-12-20T02:47:55;1.60;99.90
47168;DHT22;32931;47.778;17.806;2023-12-20T02:50:21;1.60;99.90
47168;DHT22;32931;47.778;17.806;2023-12-20T02:52:48;1.50;99.90
47168;DHT22;32931;47.778;17.806;2023-12-20T02:55:14;1.60;99.90
47168;DHT22;32931;47.778;17.806;2023-12-20T02:57:40;1.50;99.90
47168;DHT22;32931;47.778;17.806;2023-12-20T03:00:10;1.60;99.90
47168;DHT22;32931;47.778;17.806;2023-12-20T03:02:39;1.50;99.90
47168;DHT22;32931;47.778;17.806;2023-12-20T03:05:05;1.50;99.90
47168;DHT22;32931;47.778;17.806;2023-12-20T03:07:32;1.50;99.90
47168;DHT22;32931;47.778;17.806;2023-12-20T03:09:58;1.50;99.90
47168;DHT22;32931;47.778;17.806;2023-12-20T03:12:24;1.50;99.90
47168;DHT22;32931;47.778;17.806;2023-12-20T03:14:50;1.50;99.90
47168;DHT22;32931;47.778;17.806;2023-12-20T03:17:16;1.50;99.90
47168;DHT22;32931;47.778;17.806;2023-12-20T03:19:42;1.50;99.90
47168;DHT22;32931;47.778;17.806;2023-12-20T03:22:08;1.50;99.90
47168;DHT22;32931;47.778;17.806;2023-12-20T03:24:34;1.50;99.90
47168;DHT22;32931;47.778;17.806;2023-12-20T03:27:00;1.50;99.90
47168;DHT22;32931;47.778;17.806;2023-12-20T03:29:27;1.50;99.90
47168;DHT22;32931;47.778;17.806;2023-12-20T03:31:53;1.50;99.90
47168;DHT22;32931;47.778;17.806;2023-12-20T03:34:19;1.50;99.90
47168;DHT22;32931;47.778;17.806;2023-12-20T03:36:45;1.50;99.90
47168;DHT22;32931;47.778;17.806;2023-12-20T03:39:13;1.50;99.90
47168;DHT22;32931;47.778;17.806;2023-12-20T03:41:39;1.60;99.90
47168;DHT22;32931;47.778;17.806;2023-12-20T03:44:05;1.50;99.90
47168;DHT22;32931;47.778;17.806;2023-12-20T03:46:31;1.50;99.90
47168;DHT22;32931;47.778;17.806;2023-12-20T03:48:58;1.60;99.90
47168;DHT22;32931;47.778;17.806;2023-12-20T03:51:24;1.50;99.90
47168;DHT22;32931;47.778;17.806;2023-12-20T03:53:50;1.40;99.90
47168;DHT22;32931;47.778;17.806;2023-12-20T03:56:16;1.50;99.90
47168;DHT22;32931;47.778;17.806;2023-12-20T03:58:42;1.50;99.90
47168;DHT22;32931;47.778;17.806;2023-12-20T04:01:11;1.50;99.90
47168;DHT22;32931;47.778;17.806;2023-12-20T04:03:40;1.50;99.90
47168;DHT22;32931;47.778;17.806;2023-12-20T04:06:06;1.40;99.90
47168;DHT22;32931;47.778;17.806;2023-12-20T04:08:32;1.50;99.90
47168;DHT22;32931;47.778;17.806;2023-12-20T04:10:58;1.50;99.90
47168;DHT22;32931;47.778;17.806;2023-12-20T04:13:24;1.40;99.90
47168;DHT22;32931;47.778;17.806;2023-12-20T04:15:50;1.40;99.90
47168;DHT22;32931;47.778;17.806;2023-12-20T04:18:17;1.40;99.90
47168;DHT22;32931;47.778;17.806;2023-12-20T04:20:43;1.40;99.90
47168;DHT22;32931;47.778;17.806;2023-12-20T04:23:09;1.40;99.90
47168;DHT22;32931;47.778;17.806;2023-12-20T04:25:36;1.50;99.90
47168;DHT22;32931;47.778;17.806;2023-12-20T04:28:02;1.50;99.90
47168;DHT22;32931;47.778;17.806;2023-12-20T04:30:28;1.50;99.90
47168;DHT22;32931;47.778;17.806;2023-12-20T04:32:54;1.50;99.90
47168;DHT22;32931;47.778;17.806;2023-12-20T04:35:21;1.50;99.90
47168;DHT22;32931;47.778;17.806;2023-12-20T04:37:47;1.50;99.90
47168;DHT22;32931;47.778;17.806;2023-12-20T04:40:15;1.50;99.90
47168;DHT22;32931;47.778;17.806;2023-12-20T04:42:41;1.40;99.90
47168;DHT22;32931;47.778;17.806;2023-12-20T04:45:07;1.50;99.90
47168;DHT22;32931;47.778;17.806;2023-12-20T04:47:34;1.50;99.90
47168;DHT22;32931;47.778;17.806;2023-12-20T04:50:00;1.50;99.90
47168;DHT22;32931;47.778;17.806;2023-12-20T04:52:26;1.60;99.90
47168;DHT22;32931;47.778;17.806;2023-12-20T04:54:55;1.60;99.90
47168;DHT22;32931;47.778;17.806;2023-12-20T04:57:21;1.60;99.90
47168;DHT22;32931;47.778;17.806;2023-12-20T04:59:47;1.50;99.90
47168;DHT22;32931;47.778;17.806;2023-12-20T05:02:13;1.60;99.90
47168;DHT22;32931;47.778;17.806;2023-12-20T05:04:39;1.60;99.90
47168;DHT22;32931;47.778;17.806;2023-12-20T05:07:06;1.60;99.90
47168;DHT22;32931;47.778;17.806;2023-12-20T05:09:32;1.60;99.90
47168;DHT22;32931;47.778;17.806;2023-12-20T05:11:59;1.60;99.90
47168;DHT22;32931;47.778;17.806;2023-12-20T05:14:26;1.60;99.90
47168;DHT22;32931;47.778;17.806;2023-12-20T05:16:52;1.60;99.90
47168;DHT22;32931;47.778;17.806;2023-12-20T05:19:18;1.60;99.90
47168;DHT22;32931;47.778;17.806;2023-12-20T05:21:44;1.60;99.90
47168;DHT22;32931;47.778;17.806;2023-12-20T05:24:10;1.60;99.90
47168;DHT22;32931;47.778;17.806;2023-12-20T05:26:36;1.60;99.90
47168;DHT22;32931;47.778;17.806;2023-12-20T05:29:02;1.60;99.90
47168;DHT22;32931;47.778;17.806;2023-12-20T05:31:29;1.60;99.90
47168;DHT22;32931;47.778;17.806;2023-12-20T05:33:55;1.50;99.90
47168;DHT22;32931;47.778;17.806;2023-12-20T05:36:21;1.50;99.90
47168;DHT22;32931;47.778;17.806;2023-12-20T05:38:47;1.40;99.90
47168;DHT22;32931;47.778;17.806;2023-12-20T05:41:13;1.50;99.90
47168;DHT22;32931;47.778;17.806;2023-12-20T05:43:39;1.50;99.90
47168;DHT22;32931;47.778;17.806;2023-12-20T05:46:05;1.50;99.90
47168;DHT22;32931;47.778;17.806;2023-12-20T05:48:32;1.50;99.90
47168;DHT22;32931;47.778;17.806;2023-12-20T05:50:58;1.50;99.90
47168;DHT22;32931;47.778;17.806;2023-12-20T05:53:24;1.40;99.90
47168;DHT22;32931;47.778;17.806;2023-12-20T05:55:50;1.30;99.90
47168;DHT22;32931;47.778;17.806;2023-12-20T05:58:16;1.30;99.90
47168;DHT22;32931;47.778;17.806;2023-12-20T06:00:42;1.30;99.90
47168;DHT22;32931;47.778;17.806;2023-12-20T06:03:08;1.30;99.90
47168;DHT22;32931;47.778;17.806;2023-12-20T06:05:34;1.40;99.90
47168;DHT22;32931;47.778;17.806;2023-12-20T06:08:01;1.40;99.90
47168;DHT22;32931;47.778;17.806;2023-12-20T06:10:29;1.30;99.90
47168;DHT22;32931;47.778;17.806;2023-12-20T06:12:55;1.40;99.90
47168;DHT22;32931;47.778;17.806;2023-12-20T06:15:22;1.40;99.90
47168;DHT22;32931;47.778;17.806;2023-12-20T06:17:49;1.40;99.90
47168;DHT22;32931;47.778;17.806;2023-12-20T06:20:15;1.30;99.90
47168;DHT22;32931;47.778;17.806;2023-12-20T06:22:41;1.40;99.90
47168;DHT22;32931;47.778;17.806;2023-12-20T06:25:08;1.30;99.90
47168;DHT22;32931;47.778;17.806;2023-12-20T06:27:34;1.30;99.90
47168;DHT22;32931;47.778;17.806;2023-12-20T06:30:00;1.30;99.90
47168;DHT22;32931;47.778;17.806;2023-12-20T06:32:26;1.30;99.90
47168;DHT22;32931;47.778;17.806;2023-12-20T06:34:54;1.40;99.90
47168;DHT22;32931;47.778;17.806;2023-12-20T06:37:21;1.40;99.90
47168;DHT22;32931;47.778;17.806;2023-12-20T06:39:47;1.30;99.90
47168;DHT22;32931;47.778;17.806;2023-12-20T06:42:13;1.30;99.90
47168;DHT22;32931;47.778;17.806;2023-12-20T06:44:39;1.30;99.90
47168;DHT22;32931;47.778;17.806;2023-12-20T06:47:05;1.30;99.90
47168;DHT22;32931;47.778;17.806;2023-12-20T06:49:32;1.20;99.90
47168;DHT22;32931;47.778;17.806;2023-12-20T06:51:58;1.20;99.90
47168;DHT22;32931;47.778;17.806;2023-12-20T06:54:24;1.20;99.90
47168;DHT22;32931;47.778;17.806;2023-12-20T06:56:50;1.20;99.90
47168;DHT22;32931;47.778;17.806;2023-12-20T06:59:16;1.10;99.90
47168;DHT22;32931;47.778;17.806;2023-12-20T07:01:42;1.10;99.90
47168;DHT22;32931;47.778;17.806;2023-12-20T07:04:08;1.10;99.90
47168;DHT22;32931;47.778;17.806;2023-12-20T07:06:34;1.00;99.90
47168;DHT22;32931;47.778;17.806;2023-12-20T07:09:00;1.00;99.90
47168;DHT22;32931;47.778;17.806;2023-12-20T07:11:26;1.00;99.90
47168;DHT22;32931;47.778;17.806;2023-12-20T07:13:53;1.10;99.90
47168;DHT22;32931;47.778;17.806;2023-12-20T07:16:19;1.10;99.90
47168;DHT22;32931;47.778;17.806;2023-12-20T07:18:45;1.10;99.90
47168;DHT22;32931;47.778;17.806;2023-12-20T07:21:11;1.10;99.90
47168;DHT22;32931;47.778;17.806;2023-12-20T07:23:37;1.20;99.90
47168;DHT22;32931;47.778;17.806;2023-12-20T07:26:03;1.20;99.90
47168;DHT22;32931;47.778;17.806;2023-12-20T07:28:30;1.20;99.90
47168;DHT22;32931;47.778;17.806;2023-12-20T07:30:56;1.30;99.90
47168;DHT22;32931;47.778;17.806;2023-12-20T07:33:22;1.30;99.90
47168;DHT22;32931;47.778;17.806;2023-12-20T07:35:48;1.40;99.90
47168;DHT22;32931;47.778;17.806;2023-12-20T07:38:14;1.40;99.90
47168;DHT22;32931;47.778;17.806;2023-12-20T07:40:41;1.50;99.90
47168;DHT22;32931;47.778;17.806;2023-12-20T07:43:07;1.50;99.90
47168;DHT22;32931;47.778;17.806;2023-12-20T07:45:33;1.60;99.90
47168;DHT22;32931;47.778;17.806;2023-12-20T07:47:59;1.60;99.90
47168;DHT22;32931;47.778;17.806;2023-12-20T07:50:25;1.60;99.90
47168;DHT22;32931;47.778;17.806;2023-12-20T07:52:52;1.60;99.90
47168;DHT22;32931;47.778;17.806;2023-12-20T07:55:19;1.60;99.90
47168;DHT22;32931;47.778;17.806;2023-12-20T07:57:45;1.60;99.90
47168;DHT22;32931;47.778;17.806;2023-12-20T08:00:11;1.60;99.90
47168;DHT22;32931;47.778;17.806;2023-12-20T08:02:37;1.70;99.90
47168;DHT22;32931;47.778;17.806;2023-12-20T08:05:04;1.70;99.90
47168;DHT22;32931;47.778;17.806;2023-12-20T08:07:30;1.80;99.90
47168;DHT22;32931;47.778;17.806;2023-12-20T08:09:56;1.90;99.90
47168;DHT22;32931;47.778;17.806;2023-12-20T08:12:22;1.90;99.90
47168;DHT22;32931;47.778;17.806;2023-12-20T08:14:48;2.00;99.90
47168;DHT22;32931;47.778;17.806;2023-12-20T08:17:15;2.10;99.90
47168;DHT22;32931;47.778;17.806;2023-12-20T08:19:42;2.20;99.90
47168;DHT22;32931;47.778;17.806;2023-12-20T08:22:08;2.20;99.90
47168;DHT22;32931;47.778;17.806;2023-12-20T08:24:34;2.30;99.90
47168;DHT22;32931;47.778;17.806;2023-12-20T08:27:00;2.30;99.90
47168;DHT22;32931;47.778;17.806;2023-12-20T08:29:26;2.40;99.90
47168;DHT22;32931;47.778;17.806;2023-12-20T08:31:53;2.40;99.90
47168;DHT22;32931;47.778;17.806;2023-12-20T08:34:20;2.50;99.90
47168;DHT22;32931;47.778;17.806;2023-12-20T08:36:46;2.50;99.90
47168;DHT22;32931;47.778;17.806;2023-12-20T08:39:12;2.60;99.90
47168;DHT22;32931;47.778;17.806;2023-12-20T08:41:38;2.70;99.90
47168;DHT22;32931;47.778;17.806;2023-12-20T08:44:04;2.70;99.90
47168;DHT22;32931;47.778;17.806;2023-12-20T08:46:30;2.80;99.90
47168;DHT22;32931;47.778;17.806;2023-12-20T08:48:56;2.90;99.90
47168;DHT22;32931;47.778;17.806;2023-12-20T08:51:22;2.90;99.90
47168;DHT22;32931;47.778;17.806;2023-12-20T08:53:51;3.00;99.90
47168;DHT22;32931;47.778;17.806;2023-12-20T08:56:17;3.00;99.90
47168;DHT22;32931;47.778;17.806;2023-12-20T08:58:45;3.00;99.90
47168;DHT22;32931;47.778;17.806;2023-12-20T09:01:11;3.00;99.90
47168;DHT22;32931;47.778;17.806;2023-12-20T09:03:37;3.00;99.90
47168;DHT22;32931;47.778;17.806;2023-12-20T09:06:04;3.10;99.90
47168;DHT22;32931;47.778;17.806;2023-12-20T09:08:30;3.00;99.90
47168;DHT22;32931;47.778;17.806;2023-12-20T09:10:56;3.00;99.90
47168;DHT22;32931;47.778;17.806;2023-12-20T09:13:22;3.00;99.90
47168;DHT22;32931;47.778;17.806;2023-12-20T09:15:57;3.00;99.90
47168;DHT22;32931;47.778;17.806;2023-12-20T09:18:23;3.00;99.90
47168;DHT22;32931;47.778;17.806;2023-12-20T09:20:49;3.00;99.90
47168;DHT22;32931;47.778;17.806;2023-12-20T09:23:15;3.00;99.90
47168;DHT22;32931;47.778;17.806;2023-12-20T09:25:42;3.00;99.90
47168;DHT22;32931;47.778;17.806;2023-12-20T09:28:09;3.00;99.90
47168;DHT22;32931;47.778;17.806;2023-12-20T09:30:35;3.00;99.90
47168;DHT22;32931;47.778;17.806;2023-12-20T09:33:05;3.00;99.90
47168;DHT22;32931;47.778;17.806;2023-12-20T09:35:33;3.00;99.90
47168;DHT22;32931;47.778;17.806;2023-12-20T09:37:59;3.00;99.90
47168;DHT22;32931;47.778;17.806;2023-12-20T09:40:26;3.10;99.90
47168;DHT22;32931;47.778;17.806;2023-12-20T09:43:09;3.10;99.90
47168;DHT22;32931;47.778;17.806;2023-12-20T09:45:36;3.10;99.90
47168;DHT22;32931;47.778;17.806;2023-12-20T09:48:03;3.10;99.90
47168;DHT22;32931;47.778;17.806;2023-12-20T09:50:30;3.20;99.90
47168;DHT22;32931;47.778;17.806;2023-12-20T09:52:58;3.20;99.90
47168;DHT22;32931;47.778;17.806;2023-12-20T09:55:28;3.20;99.90
47168;DHT22;32931;47.778;17.806;2023-12-20T09:57:54;3.20;99.90
47168;DHT22;32931;47.778;17.806;2023-12-20T10:00:21;3.20;99.90
47168;DHT22;32931;47.778;17.806;2023-12-20T10:02:57;3.30;99.90
47168;DHT22;32931;47.778;17.806;2023-12-20T10:05:28;3.30;99.90
47168;DHT22;32931;47.778;17.806;2023-12-20T10:07:56;3.30;99.90
47168;DHT22;32931;47.778;17.806;2023-12-20T10:10:22;3.30;99.90
47168;DHT22;32931;47.778;17.806;2023-12-20T10:13:05;3.40;99.90
47168;DHT22;32931;47.778;17.806;2023-12-20T10:15:35;3.40;99.90
47168;DHT22;32931;47.778;17.806;2023-12-20T10:18:02;3.40;99.90
47168;DHT22;32931;47.778;17.806;2023-12-20T10:20:30;3.30;99.90
47168;DHT22;32931;47.778;17.806;2023-12-20T10:23:00;3.40;99.90
47168;DHT22;32931;47.778;17.806;2023-12-20T10:25:26;3.40;99.90
47168;DHT22;32931;47.778;17.806;2023-12-20T10:28:12;3.40;99.90
47168;DHT22;32931;47.778;17.806;2023-12-20T10:30:39;3.40;99.90
47168;DHT22;32931;47.778;17.806;2023-12-20T10:33:07;3.40;99.90
47168;DHT22;32931;47.778;17.806;2023-12-20T10:35:38;3.50;99.90
47168;DHT22;32931;47.778;17.806;2023-12-20T10:38:05;3.60;99.90
47168;DHT22;32931;47.778;17.806;2023-12-20T10:40:34;3.60;99.90
47168;DHT22;32931;47.778;17.806;2023-12-20T10:43:02;3.70;99.90
47168;DHT22;32931;47.778;17.806;2023-12-20T10:45:29;3.80;99.90
47168;DHT22;32931;47.778;17.806;2023-12-20T10:47:56;3.80;99.90
47168;DHT22;32931;47.778;17.806;2023-12-20T10:50:26;3.80;99.90
47168;DHT22;32931;47.778;17.806;2023-12-20T10:52:52;3.80;99.90
47168;DHT22;32931;47.778;17.806;2023-12-20T10:55:22;3.80;99.90
47168;DHT22;32931;47.778;17.806;2023-12-20T10:57:54;3.90;99.90
47168;DHT22;32931;47.778;17.806;2023-12-20T11:00:21;4.00;99.90
47168;DHT22;32931;47.778;17.806;2023-12-20T11:02:49;4.10;99.90
47168;DHT22;32931;47.778;17.806;2023-12-20T11:06:03;4.20;99.90
47168;DHT22;32931;47.778;17.806;2023-12-20T11:08:39;4.20;99.90
47168;DHT22;32931;47.778;17.806;2023-12-20T11:11:24;4.30;99.90
47168;DHT22;32931;47.778;17.806;2023-12-20T11:13:59;4.30;99.90
47168;DHT22;32931;47.778;17.806;2023-12-20T11:16:26;4.30;99.90
47168;DHT22;32931;47.778;17.806;2023-12-20T11:18:52;4.40;99.90
47168;DHT22;32931;47.778;17.806;2023-12-20T11:21:18;4.30;99.90
47168;DHT22;32931;47.778;17.806;2023-12-20T11:23:44;4.40;99.90
47168;DHT22;32931;47.778;17.806;2023-12-20T11:26:10;4.40;99.90
47168;DHT22;32931;47.778;17.806;2023-12-20T11:28:36;4.50;99.90
47168;DHT22;32931;47.778;17.806;2023-12-20T11:31:03;4.60;99.90
47168;DHT22;32931;47.778;17.806;2023-12-20T11:33:38;4.60;99.90
47168;DHT22;32931;47.778;17.806;2023-12-20T11:36:13;4.70;99.90
47168;DHT22;32931;47.778;17.806;2023-12-20T11:38:54;4.70;99.90
47168;DHT22;32931;47.778;17.806;2023-12-20T11:41:23;4.70;99.90
47168;DHT22;32931;47.778;17.806;2023-12-20T11:43:53;4.70;99.90
47168;DHT22;32931;47.778;17.806;2023-12-20T11:46:20;4.60;99.90
47168;DHT22;32931;47.778;17.806;2023-12-20T11:48:46;4.60;99.90
47168;DHT22;32931;47.778;17.806;2023-12-20T11:51:14;4.60;99.90
47168;DHT22;32931;47.778;17.806;2023-12-20T11:53:41;4.60;99.90
47168;DHT22;32931;47.778;17.806;2023-12-20T11:56:10;4.60;99.90
47168;DHT22;32931;47.778;17.806;2023-12-20T11:58:37;4.60;99.90
47168;DHT22;32931;47.778;17.806;2023-12-20T12:01:04;4.60;99.90
47168;DHT22;32931;47.778;17.806;2023-12-20T12:03:30;4.60;99.90
47168;DHT22;32931;47.778;17.806;2023-12-20T12:05:57;4.50;99.90
47168;DHT22;32931;47.778;17.806;2023-12-20T12:08:24;4.50;99.90
47168;DHT22;32931;47.778;17.806;2023-12-20T12:10:50;4.60;99.90
47168;DHT22;32931;47.778;17.806;2023-12-20T12:13:16;4.60;99.90
47168;DHT22;32931;47.778;17.806;2023-12-20T12:15:42;4.60;99.90
47168;DHT22;32931;47.778;17.806;2023-12-20T12:18:10;4.60;99.90
47168;DHT22;32931;47.778;17.806;2023-12-20T12:20:36;4.50;99.90
47168;DHT22;32931;47.778;17.806;2023-12-20T12:23:06;4.50;99.90
47168;DHT22;32931;47.778;17.806;2023-12-20T12:25:35;4.50;99.90
47168;DHT22;32931;47.778;17.806;2023-12-20T12:28:01;4.50;99.90
47168;DHT22;32931;47.778;17.806;2023-12-20T12:30:28;4.50;99.90
47168;DHT22;32931;47.778;17.806;2023-12-20T12:32:56;4.50;99.90
47168;DHT22;32931;47.778;17.806;2023-12-20T12:35:22;4.50;99.90
47168;DHT22;32931;47.778;17.806;2023-12-20T12:37:48;4.50;99.90
47168;DHT22;32931;47.778;17.806;2023-12-20T12:40:16;4.60;99.90
47168;DHT22;32931;47.778;17.806;2023-12-20T12:42:44;4.60;99.90
47168;DHT22;32931;47.778;17.806;2023-12-20T12:45:11;4.60;99.90
47168;DHT22;32931;47.778;17.806;2023-12-20T12:47:38;4.60;99.90
47168;DHT22;32931;47.778;17.806;2023-12-20T12:50:05;4.70;99.90
47168;DHT22;32931;47.778;17.806;2023-12-20T12:52:31;4.70;99.90
47168;DHT22;32931;47.778;17.806;2023-12-20T12:54:57;4.80;99.90
47168;DHT22;32931;47.778;17.806;2023-12-20T12:57:23;4.80;99.90
47168;DHT22;32931;47.778;17.806;2023-12-20T12:59:50;4.80;99.90
47168;DHT22;32931;47.778;17.806;2023-12-20T13:02:16;4.90;99.90
47168;DHT22;32931;47.778;17.806;2023-12-20T13:04:42;4.90;99.90
47168;DHT22;32931;47.778;17.806;2023-12-20T13:07:09;4.90;99.90
47168;DHT22;32931;47.778;17.806;2023-12-20T13:09:39;4.90;99.90
47168;DHT22;32931;47.778;17.806;2023-12-20T13:12:07;4.90;99.90
47168;DHT22;32931;47.778;17.806;2023-12-20T13:14:34;4.90;99.90
47168;DHT22;32931;47.778;17.806;2023-12-20T13:17:04;4.90;99.90
47168;DHT22;32931;47.778;17.806;2023-12-20T13:19:30;5.00;99.90
47168;DHT22;32931;47.778;17.806;2023-12-20T13:21:56;5.00;99.90
47168;DHT22;32931;47.778;17.806;2023-12-20T13:24:24;4.90;99.90
47168;DHT22;32931;47.778;17.806;2023-12-20T13:26:50;5.00;99.90
47168;DHT22;32931;47.778;17.806;2023-12-20T13:29:16;4.90;99.90
47168;DHT22;32931;47.778;17.806;2023-12-20T13:31:42;4.90;99.90
47168;DHT22;32931;47.778;17.806;2023-12-20T13:34:08;5.00;99.90
47168;DHT22;32931;47.778;17.806;2023-12-20T13:36:35;4.90;99.90
47168;DHT22;32931;47.778;17.806;2023-12-20T13:39:03;5.00;99.90
47168;DHT22;32931;47.778;17.806;2023-12-20T13:41:31;5.00;99.90
47168;DHT22;32931;47.778;17.806;2023-12-20T13:43:57;5.00;99.90
47168;DHT22;32931;47.778;17.806;2023-12-20T13:46:23;5.10;99.90
47168;DHT22;32931;47.778;17.806;2023-12-20T13:48:50;5.10;99.90
47168;DHT22;32931;47.778;17.806;2023-12-20T13:51:16;5.10;99.90
47168;DHT22;32931;47.778;17.806;2023-12-20T13:53:42;5.10;99.90
47168;DHT22;32931;47.778;17.806;2023-12-20T13:56:08;5.00;99.90
47168;DHT22;32931;47.778;17.806;2023-12-20T13:58:34;5.10;99.90
47168;DHT22;32931;47.778;17.806;2023-12-20T14:01:00;5.10;99.90
47168;DHT22;32931;47.778;17.806;2023-12-20T14:03:27;5.10;99.90
47168;DHT22;32931;47.778;17.806;2023-12-20T14:05:54;5.10;99.90
47168;DHT22;32931;47.778;17.806;2023-12-20T14:08:20;5.10;99.90
47168;DHT22;32931;47.778;17.806;2023-12-20T14:10:46;5.10;99.90
47168;DHT22;32931;47.778;17.806;2023-12-20T14:13:12;5.10;99.90
47168;DHT22;32931;47.778;17.806;2023-12-20T14:15:38;5.10;99.90
47168;DHT22;32931;47.778;17.806;2023-12-20T14:18:06;5.00;99.90
47168;DHT22;32931;47.778;17.806;2023-12-20T14:20:34;5.00;99.90
47168;DHT22;32931;47.778;17.806;2023-12-20T14:23:04;5.00;99.90
47168;DHT22;32931;47.778;17.806;2023-12-20T14:25:30;5.00;99.90
47168;DHT22;32931;47.778;17.806;2023-12-20T14:27:57;5.00;99.90
47168;DHT22;32931;47.778;17.806;2023-12-20T14:30:23;5.00;99.90
47168;DHT22;32931;47.778;17.806;2023-12-20T14:32:50;4.90;99.90
47168;DHT22;32931;47.778;17.806;2023-12-20T14:35:16;4.90;99.90
47168;DHT22;32931;47.778;17.806;2023-12-20T14:37:42;4.90;99.90
47168;DHT22;32931;47.778;17.806;2023-12-20T14:40:09;4.80;99.90
47168;DHT22;32931;47.778;17.806;2023-12-20T14:42:45;4.70;99.90
47168;DHT22;32931;47.778;17.806;2023-12-20T14:45:12;4.70;99.90
47168;DHT22;32931;47.778;17.806;2023-12-20T14:47:39;4.70;99.90
47168;DHT22;32931;47.778;17.806;2023-12-20T14:50:06;4.60;99.90
47168;DHT22;32931;47.778;17.806;2023-12-20T14:52:33;4.60;99.90
47168;DHT22;32931;47.778;17.806;2023-12-20T14:55:00;4.60;99.90
47168;DHT22;32931;47.778;17.806;2023-12-20T14:57:29;4.60;99.90
47168;DHT22;32931;47.778;17.806;2023-12-20T14:59:58;4.60;99.90
47168;DHT22;32931;47.778;17.806;2023-12-20T15:02:24;4.60;99.90
47168;DHT22;32931;47.778;17.806;2023-12-20T15:04:50;4.60;99.90
47168;DHT22;32931;47.778;17.806;2023-12-20T15:07:17;4.60;99.90
47168;DHT22;32931;47.778;17.806;2023-12-20T15:09:43;4.70;99.90
47168;DHT22;32931;47.778;17.806;2023-12-20T15:12:13;4.70;99.90
47168;DHT22;32931;47.778;17.806;2023-12-20T15:14:39;4.70;99.90
47168;DHT22;32931;47.778;17.806;2023-12-20T15:17:06;4.70;99.90
47168;DHT22;32931;47.778;17.806;2023-12-20T15:19:32;4.70;99.90
47168;DHT22;32931;47.778;17.806;2023-12-20T15:21:58;4.70;99.90
47168;DHT22;32931;47.778;17.806;2023-12-20T15:24:25;4.70;99.90
47168;DHT22;32931;47.778;17.806;2023-12-20T15:27:04;4.70;99.90
47168;DHT22;32931;47.778;17.806;2023-12-20T15:29:31;4.60;99.90